KMEM/MEM METAR and TAF weather

Enter ICAO airport designator
Station Type Date Time Source
KMEM METAR 2023/01/30 10:54 UTC NOAA

KMEM 301054Z 33008KT 1 1/2SM OVC003 03/03 A3019 RMK AO2 SFC VIS 7 SLP224 DZE35 P0000 T00330028


Station Type Date Time Source
KMEM Decoded METAR 2023/01/30 10:54 UTC NOAA

MEMPHIS INTERNATIONAL AIRPORT , TN, United States (KMEM) 35-02N 089-59W 86M
Jan 30, 2023 - 05:54 AM EST / 2023.01.30 1054 UTC
Wind: from the NNW (330 degrees) at 9 MPH (8 KT):0
Visibility: 1 1/2 mile(s):0
Sky conditions: overcast
Precipitation last hour: A trace
Temperature: 37.9 F (3.3 C)
Dew Point: 37.0 F (2.8 C)
Relative Humidity: 96%
Pressure (altimeter): 30.19 in. Hg (1022 hPa)
ob: KMEM 301054Z 33008KT 1 1/2SM OVC003 03/03 A3019 RMK AO2 SFC VIS 7 SLP224 DZE35 P0000 T00330028
cycle: 11

Station Type Date Time Source
KMEM TAF 2023/01/30 12:45 UTC NOAA

TAF KMEM 301142Z 3012/3118 36009KT 4SM BR OVC003
FM301900 02010KT P6SM OVC005
FM310100 02008KT P6SM VCSH OVC005
FM310400 02010KT 4SM -FZRA BR OVC004
FM311100 02012KT 5SM BR OVC003
FM311700 03009KT P6SM VCSH BKN007

Example: see airport list